Astoria Regional Airport Astoria US
ICAO: KAST
IATA: AST
Category: Medium
Scheduled Services: No

Elevation: 15 ft
TransAlt. 18000 ft.

Airport Communications:
ASOS:135.375
SEATTLE CNTR:124.2
AIR CG:38.18
MC MINNVILLE RDO:122.3
CTAF/UNICOM:122.8

KAST Zoom In..

If you have problems with the map follow the link
https://www.worldairports.se/pages/airport.php?
ICAO=KAST

Runways:

(A) RW 08 length 5795 ft width 100 ft
---- / hdg 77

(B) RW 13 length 4996 ft width 100 ft
---- / hdg 135

(C) RW 26 length 5795 ft width 100 ft
ILS 109.50 / hdg 257

(D) RW 31 length 4996 ft width 100 ft
---- / hdg 315

Location; KAST
Day. 29 / Time. 16.31 Zulu
* Altimeter: 30.11
* Temperature: 10° c. 50°f.
* Wind from: 190° Speed 17 kn with Gusts up to 25 kn.
Dewpoint: 08° c.
Visibility: 6 Statute Miles.
Clouds: Few 2000 ft.
Clouds: Scattered 2500 ft.
Clouds: Overcast 4100 ft.
Conditions: Light Rain.Conditions: Mist.

KAST 291631Z AUTO 19017G25KT 6SM -RA BR FEW020 SCT025 OVC041 10/08 A3011 RMK AO2 P0003 T01000078


Wind From 190°
Speed 17 kn.

 
 
jpsmedia worldairports.se 2020   terms of use